Time;durP1;ratioP1;P1;durP2;ratioP2;P2;SDS_P1;SDS_P2;PMS_P1;PMS_P2;Temp;Humidity;BMP_temperature;BMP_pressure;BME280_temperature;BME280_humidity;BME280_pressure;Samples;Min_cycle;Max_cycle;Signal;HPM_P1;HPM_P2
2022/09/11 00:00:47;;;;;;;5.50;2.20;;;15.70;99.90;;;;;;4991622;28;20398;-52
2022/09/11 00:03:13;;;;;;;5.68;1.92;;;15.60;99.90;;;;;;4992568;28;20397;-52
2022/09/11 00:05:40;;;;;;;5.45;2.08;;;15.50;99.90;;;;;;4991111;28;20418;-52
2022/09/11 00:08:17;;;;;;;7.80;2.80;;;15.60;99.90;;;;;;4991423;28;20405;-52
2022/09/11 00:10:43;;;;;;;9.80;2.70;;;15.60;99.90;;;;;;4990864;28;20461;-52
2022/09/11 00:13:13;;;;;;;6.10;2.70;;;15.60;99.90;;;;;;4992351;28;20915;-52
2022/09/11 00:15:40;;;;;;;6.90;2.80;;;15.60;99.90;;;;;;4991362;28;20410;-52
2022/09/11 00:18:07;;;;;;;6.85;2.20;;;15.60;99.90;;;;;;4992046;28;20871;-52
2022/09/11 00:20:34;;;;;;;7.00;2.10;;;15.60;99.90;;;;;;4990837;28;20393;-52
2022/09/11 00:23:03;;;;;;;5.60;2.20;;;15.60;99.90;;;;;;4990471;28;20405;-52
2022/09/11 00:25:39;;;;;;;5.60;2.20;;;15.70;99.90;;;;;;4990993;28;20418;-52
2022/09/11 00:28:05;;;;;;;6.00;2.63;;;15.70;99.90;;;;;;4991587;28;20846;-52
2022/09/11 00:30:31;;;;;;;5.80;2.40;;;15.80;99.90;;;;;;4990771;28;20406;-52
2022/09/11 00:32:56;;;;;;;7.18;2.88;;;15.80;99.90;;;;;;4991516;28;20880;-52
2022/09/11 00:35:23;;;;;;;7.70;2.30;;;15.80;99.90;;;;;;4990404;28;20883;-52
2022/09/11 00:37:49;;;;;;;7.50;2.40;;;15.90;99.90;;;;;;4991084;28;20801;-52
2022/09/11 00:40:16;;;;;;;5.50;2.30;;;15.70;99.90;;;;;;4991206;28;20541;-52
2022/09/11 00:42:42;;;;;;;9.77;2.53;;;15.70;99.90;;;;;;4990740;28;20378;-52
2022/09/11 00:45:23;;;;;;;6.63;2.30;;;15.80;99.90;;;;;;4990930;28;20411;-52
2022/09/11 00:47:50;;;;;;;6.90;2.40;;;15.80;99.90;;;;;;4988983;28;20403;-52
2022/09/11 00:50:20;;;;;;;5.80;2.20;;;15.90;99.90;;;;;;4991400;28;20394;-52
2022/09/11 00:53:15;;;;;;;6.80;2.10;;;15.90;99.90;;;;;;4990772;28;20405;-52
2022/09/11 00:55:47;;;;;;;7.90;2.10;;;15.90;99.90;;;;;;4988504;28;20442;-52
2022/09/11 00:58:20;;;;;;;5.50;2.30;;;15.90;99.90;;;;;;4991266;28;20366;-52
2022/09/11 01:00:46;;;;;;;5.90;2.00;;;15.80;99.90;;;;;;4991048;28;20418;-52
2022/09/11 01:03:12;;;;;;;7.60;2.28;;;15.90;99.90;;;;;;4991217;28;20475;-52
2022/09/11 01:05:40;;;;;;;5.30;1.93;;;15.90;99.90;;;;;;4990450;28;20497;-52
2022/09/11 01:08:06;;;;;;;8.13;2.15;;;15.90;99.90;;;;;;4990990;28;20387;-52
2022/09/11 01:10:47;;;;;;;6.05;2.20;;;16.00;99.90;;;;;;4989986;28;20418;-52
2022/09/11 01:13:35;;;;;;;6.43;2.40;;;15.90;99.90;;;;;;4990385;28;20386;-52
2022/09/11 01:16:44;;;;;;;7.07;2.70;;;15.90;99.90;;;;;;4990886;28;20399;-52
2022/09/11 01:19:44;;;;;;;6.30;2.60;;;15.90;99.90;;;;;;4990705;28;20383;-52
2022/09/11 01:22:32;;;;;;;5.82;2.80;;;16.00;99.90;;;;;;4991013;28;20450;-52
2022/09/11 01:25:27;;;;;;;7.80;3.22;;;15.90;99.90;;;;;;4990672;28;20962;-52
2022/09/11 01:27:55;;;;;;;7.53;2.38;;;15.90;99.90;;;;;;4990683;28;20397;-52
2022/09/11 01:30:25;;;;;;;8.98;3.50;;;15.80;99.90;;;;;;4990739;28;20448;-52
2022/09/11 01:33:11;;;;;;;7.45;2.95;;;15.90;99.90;;;;;;4989907;28;20497;-52
2022/09/11 01:36:06;;;;;;;7.00;3.00;;;15.90;99.90;;;;;;4989966;28;20395;-52
2022/09/11 01:38:45;;;;;;;7.88;3.70;;;15.90;99.90;;;;;;4989415;28;20407;-52
2022/09/11 01:41:11;;;;;;;7.57;3.70;;;15.90;99.90;;;;;;4990578;28;20397;-52
2022/09/11 01:44:02;;;;;;;7.00;3.50;;;15.90;99.90;;;;;;4990178;28;20481;-52
2022/09/11 01:46:32;;;;;;;8.45;3.92;;;15.80;99.90;;;;;;4989978;28;20424;-52
2022/09/11 01:49:05;;;;;;;8.55;3.78;;;15.80;99.90;;;;;;4990617;28;20441;-52
2022/09/11 01:51:35;;;;;;;7.90;3.60;;;15.80;99.90;;;;;;4989925;28;20497;-52
2022/09/11 01:54:03;;;;;;;7.90;3.90;;;15.80;99.90;;;;;;4990212;28;20818;-52
2022/09/11 01:56:38;;;;;;;8.23;4.00;;;15.90;99.90;;;;;;4989800;28;20378;-52
2022/09/11 01:59:09;;;;;;;7.73;3.70;;;15.90;99.90;;;;;;4990264;28;20394;-52
2022/09/11 02:01:39;;;;;;;8.98;4.30;;;15.90;99.90;;;;;;4989609;28;20852;-52
2022/09/11 02:04:14;;;;;;;7.63;3.90;;;15.90;99.90;;;;;;4990542;28;20845;-52
2022/09/11 02:06:47;;;;;;;10.30;3.40;;;16.00;99.90;;;;;;4980496;28;20607;-52
2022/09/11 02:09:18;;;;;;;8.35;4.10;;;16.00;99.90;;;;;;4970490;28;20435;-52
2022/09/11 02:11:47;;;;;;;8.07;3.65;;;16.00;99.90;;;;;;4969834;28;20380;-52
2022/09/11 02:14:27;;;;;;;8.02;3.60;;;16.00;99.90;;;;;;4971206;28;20391;-52
2022/09/11 02:17:07;;;;;;;8.35;3.80;;;16.10;99.90;;;;;;4971081;28;20392;-52
2022/09/11 02:19:33;;;;;;;10.40;4.20;;;16.00;99.90;;;;;;4970366;28;20397;-52
2022/09/11 02:21:58;;;;;;;8.70;4.00;;;16.00;99.90;;;;;;4970424;28;20539;-52
2022/09/11 02:24:26;;;;;;;11.33;4.00;;;16.00;99.90;;;;;;4970454;28;20384;-52
2022/09/11 02:26:59;;;;;;;7.65;3.88;;;16.00;99.90;;;;;;4971171;28;20400;-52
2022/09/11 02:29:25;;;;;;;8.90;3.80;;;16.10;99.90;;;;;;4982480;28;20417;-52
2022/09/11 02:31:51;;;;;;;7.68;3.88;;;16.20;99.90;;;;;;4990112;28;20399;-52
2022/09/11 02:34:22;;;;;;;8.45;3.97;;;16.20;99.90;;;;;;4990081;28;20429;-52
2022/09/11 02:37:06;;;;;;;8.63;4.50;;;16.10;99.90;;;;;;4989901;28;20407;-52
2022/09/11 02:40:15;;;;;;;7.75;3.88;;;16.10;99.90;;;;;;4989669;28;20393;-52
2022/09/11 02:43:14;;;;;;;9.33;4.20;;;16.10;99.90;;;;;;4989298;28;20391;-52
2022/09/11 02:45:43;;;;;;;9.00;3.72;;;16.10;99.90;;;;;;4988815;28;20473;-52
2022/09/11 02:48:11;;;;;;;8.80;3.90;;;16.00;99.90;;;;;;4992989;28;20402;-52
2022/09/11 02:50:47;;;;;;;9.17;3.60;;;16.10;99.90;;;;;;4992796;28;20871;-52
2022/09/11 02:53:28;;;;;;;8.40;4.10;;;16.10;99.90;;;;;;4992725;28;20816;-52
2022/09/11 02:56:29;;;;;;;8.60;4.05;;;16.10;99.90;;;;;;4993419;28;20432;-52
2022/09/11 02:58:57;;;;;;;10.17;4.57;;;16.10;99.90;;;;;;4993502;28;20383;-52
2022/09/11 03:01:24;;;;;;;8.20;3.90;;;16.10;99.90;;;;;;4992401;28;20395;-52
2022/09/11 03:03:49;;;;;;;10.18;4.50;;;16.10;99.90;;;;;;4992807;28;20740;-52
2022/09/11 03:06:21;;;;;;;7.83;4.13;;;16.10;99.90;;;;;;4993455;28;20426;-52
2022/09/11 03:08:47;;;;;;;8.52;4.10;;;16.00;99.90;;;;;;4992387;28;20386;-52
2022/09/11 03:11:14;;;;;;;8.60;4.20;;;16.00;99.90;;;;;;4992707;28;20379;-52
2022/09/11 03:13:40;;;;;;;10.68;4.15;;;15.40;99.90;;;;;;4991857;28;20464;-52
2022/09/11 03:16:06;;;;;;;11.15;4.88;;;16.10;99.90;;;;;;4975597;28;20402;-52
2022/09/11 03:18:32;;;;;;;12.05;5.40;;;16.10;99.90;;;;;;4992402;28;20433;-52
2022/09/11 03:20:59;;;;;;;9.30;4.50;;;16.10;99.90;;;;;;4992859;28;20842;-52
2022/09/11 03:23:25;;;;;;;12.60;5.25;;;16.00;99.90;;;;;;4992086;28;20386;-52
2022/09/11 03:25:51;;;;;;;12.40;5.10;;;16.00;99.90;;;;;;4992101;28;20418;-52
2022/09/11 03:28:16;;;;;;;9.32;5.10;;;16.00;99.90;;;;;;4992649;28;20869;-52
2022/09/11 03:30:42;;;;;;;9.38;4.80;;;16.10;99.90;;;;;;4991452;28;20449;-52
2022/09/11 03:33:08;;;;;;;9.60;4.90;;;16.00;99.90;;;;;;4992559;28;20418;-52
2022/09/11 03:35:34;;;;;;;9.27;4.70;;;16.00;99.90;;;;;;4991515;28;20403;-52
2022/09/11 03:38:00;;;;;;;10.67;5.40;;;16.00;99.90;;;;;;4992254;28;20383;-52
2022/09/11 03:40:26;;;;;;;9.85;4.70;;;16.00;99.90;;;;;;4991509;28;20481;-53
2022/09/11 03:42:52;;;;;;;8.93;4.60;;;16.00;99.90;;;;;;4991874;28;20389;-52
2022/09/11 03:45:20;;;;;;;14.02;5.38;;;15.90;99.90;;;;;;4991990;28;20410;-52
2022/09/11 03:47:46;;;;;;;10.02;5.20;;;15.90;99.90;;;;;;4991467;28;20387;-52
2022/09/11 03:50:12;;;;;;;11.93;4.95;;;15.90;99.90;;;;;;4992147;28;20410;-52
2022/09/11 03:52:38;;;;;;;10.40;5.00;;;15.80;99.90;;;;;;4991359;28;20385;-52
2022/09/11 03:55:04;;;;;;;9.32;5.20;;;15.90;99.90;;;;;;4991986;28;20469;-52
2022/09/11 03:57:35;;;;;;;12.60;5.50;;;15.90;99.90;;;;;;4990778;28;20449;-52
2022/09/11 04:00:02;;;;;;;11.20;5.75;;;15.90;99.90;;;;;;4991879;28;20484;-52
2022/09/11 04:02:27;;;;;;;9.70;5.70;;;15.80;99.90;;;;;;4990746;28;20457;-52
2022/09/11 04:04:53;;;;;;;11.10;5.40;;;15.80;99.90;;;;;;4991958;28;20394;-52
2022/09/11 04:07:19;;;;;;;11.03;5.40;;;16.00;99.90;;;;;;4992328;28;20449;-52
2022/09/11 04:09:45;;;;;;;10.47;5.30;;;16.00;99.90;;;;;;4991306;28;20387;-52
2022/09/11 04:12:11;;;;;;;12.90;5.70;;;16.10;99.90;;;;;;4991389;28;20787;-52
2022/09/11 04:14:37;;;;;;;8.82;5.35;;;16.00;99.90;;;;;;4991002;28;20434;-52
2022/09/11 04:17:03;;;;;;;9.35;5.32;;;16.00;99.90;;;;;;4991644;28;20481;-52
2022/09/11 04:19:29;;;;;;;10.45;5.60;;;16.10;99.90;;;;;;4990798;28;20386;-52
2022/09/11 04:21:55;;;;;;;12.30;6.00;;;16.10;99.90;;;;;;4992075;28;20489;-52
2022/09/11 04:24:20;;;;;;;10.35;5.07;;;16.10;99.90;;;;;;4991348;28;20931;-52
2022/09/11 04:26:46;;;;;;;11.80;5.38;;;16.00;99.90;;;;;;4990875;28;20407;-52
2022/09/11 04:29:12;;;;;;;10.35;5.50;;;16.20;99.90;;;;;;4991104;28;20864;-52
2022/09/11 04:31:40;;;;;;;12.00;5.57;;;16.10;99.90;;;;;;4990729;28;20401;-52
2022/09/11 04:34:05;;;;;;;9.60;5.47;;;16.00;99.90;;;;;;4991543;28;20433;-54
2022/09/11 04:36:31;;;;;;;10.30;5.00;;;16.10;99.90;;;;;;4990885;28;20470;-53
2022/09/11 04:38:59;;;;;;;9.35;5.07;;;16.10;99.90;;;;;;4991638;28;20391;-52
2022/09/11 04:41:25;;;;;;;12.02;5.43;;;16.10;99.90;;;;;;4991214;28;20465;-52
2022/09/11 04:43:55;;;;;;;11.80;5.45;;;16.20;99.90;;;;;;4990949;28;20382;-52
2022/09/11 04:46:20;;;;;;;10.32;5.90;;;16.10;99.90;;;;;;4990902;28;20402;-52
2022/09/11 04:48:48;;;;;;;10.23;5.55;;;16.10;99.90;;;;;;4990109;28;20452;-52
2022/09/11 04:51:22;;;;;;;10.40;5.57;;;16.00;99.90;;;;;;4990758;28;20473;-52
2022/09/11 04:53:49;;;;;;;9.90;5.82;;;16.00;99.90;;;;;;4990098;28;20400;-52
2022/09/11 04:56:15;;;;;;;10.37;5.47;;;16.00;99.90;;;;;;4990711;28;20395;-52
2022/09/11 04:58:44;;;;;;;10.10;5.50;;;16.10;99.90;;;;;;4990338;28;20394;-52
2022/09/11 05:01:15;;;;;;;11.70;5.80;;;16.10;99.90;;;;;;4990478;28;20395;-52
2022/09/11 05:03:44;;;;;;;10.88;5.53;;;16.10;99.90;;;;;;4990002;28;20391;-52
2022/09/11 05:06:15;;;;;;;12.32;5.40;;;16.10;99.90;;;;;;4990742;28;20414;-52
2022/09/11 05:08:43;;;;;;;10.18;6.00;;;16.10;99.90;;;;;;4989552;28;20414;-52
2022/09/11 05:11:12;;;;;;;13.02;7.07;;;16.10;99.90;;;;;;4990413;28;20401;-52
2022/09/11 05:13:38;;;;;;;12.70;6.53;;;16.10;99.90;;;;;;4989754;28;20390;-52
2022/09/11 05:16:05;;;;;;;15.23;6.20;;;16.10;99.90;;;;;;4989397;28;20402;-52
2022/09/11 05:18:31;;;;;;;11.80;6.20;;;16.20;99.90;;;;;;4980282;28;20418;-52
2022/09/11 05:21:05;;;;;;;12.55;6.25;;;16.10;99.90;;;;;;4988697;28;20417;-52
2022/09/11 05:23:31;;;;;;;10.75;6.50;;;16.10;99.90;;;;;;4975225;28;20404;-52
2022/09/11 05:25:58;;;;;;;12.23;6.50;;;16.10;99.90;;;;;;4976088;28;20448;-52
2022/09/11 05:28:25;;;;;;;12.93;6.38;;;16.10;99.90;;;;;;4979114;28;20400;-52
2022/09/11 05:30:52;;;;;;;12.48;6.20;;;16.20;99.90;;;;;;4976566;28;20473;-52
2022/09/11 05:33:18;;;;;;;11.55;6.57;;;16.20;99.90;;;;;;4973112;28;20503;-52
2022/09/11 05:35:43;;;;;;;10.80;6.20;;;16.20;99.90;;;;;;4977895;28;20510;-52
2022/09/11 05:38:12;;;;;;;12.30;5.65;;;16.20;99.90;;;;;;4974867;28;20489;-52
2022/09/11 05:40:45;;;;;;;11.30;6.20;;;16.20;99.90;;;;;;4982285;28;20386;-52
2022/09/11 05:43:13;;;;;;;11.50;6.50;;;16.20;99.90;;;;;;4971979;28;20518;-52
2022/09/11 05:45:39;;;;;;;12.68;6.32;;;16.20;99.90;;;;;;4977479;28;20422;-52
2022/09/11 05:48:05;;;;;;;12.70;6.60;;;16.10;99.90;;;;;;4977448;28;20723;-52
2022/09/11 05:50:31;;;;;;;11.47;6.43;;;16.10;99.90;;;;;;4977442;28;20506;-54
2022/09/11 05:52:57;;;;;;;11.20;6.40;;;16.10;99.90;;;;;;4975564;28;20388;-52
2022/09/11 05:55:23;;;;;;;10.77;6.30;;;16.10;99.90;;;;;;4977234;28;20402;-52
2022/09/11 05:57:51;;;;;;;11.13;6.20;;;16.20;99.90;;;;;;4978294;28;20386;-52
2022/09/11 06:00:17;;;;;;;13.50;6.40;;;16.20;99.90;;;;;;4976632;28;20435;-52
2022/09/11 06:02:43;;;;;;;14.02;6.50;;;16.20;99.90;;;;;;4988925;28;20542;-52
2022/09/11 06:05:09;;;;;;;12.50;6.90;;;16.30;99.90;;;;;;4974679;28;20469;-52
2022/09/11 06:07:35;;;;;;;12.27;6.55;;;16.30;99.90;;;;;;4980889;28;20424;-52
2022/09/11 06:10:01;;;;;;;12.93;6.15;;;16.20;99.90;;;;;;4990800;28;20434;-52
2022/09/11 06:12:27;;;;;;;10.60;6.10;;;16.50;99.90;;;;;;4986265;28;20907;-52
2022/09/11 06:14:53;;;;;;;13.10;6.55;;;16.50;99.90;;;;;;4983810;28;20401;-52
2022/09/11 06:17:20;;;;;;;11.05;6.10;;;16.50;99.90;;;;;;5009599;28;20392;-52
2022/09/11 06:19:46;;;;;;;13.95;7.35;;;16.50;99.90;;;;;;5008728;28;20396;-52
2022/09/11 06:22:11;;;;;;;13.40;6.63;;;16.50;99.90;;;;;;5004422;28;20475;-52
2022/09/11 06:24:37;;;;;;;12.80;6.97;;;16.50;99.90;;;;;;5006838;28;20480;-52
2022/09/11 06:27:03;;;;;;;12.10;6.53;;;16.50;99.90;;;;;;5013212;28;20405;-52
2022/09/11 06:29:31;;;;;;;10.52;6.53;;;16.50;99.90;;;;;;5012927;28;20393;-52
2022/09/11 06:31:58;;;;;;;13.10;7.30;;;16.50;99.90;;;;;;5013172;28;20389;-52
2022/09/11 06:34:24;;;;;;;13.77;6.90;;;16.50;99.90;;;;;;4992278;28;20422;-52
2022/09/11 06:36:50;;;;;;;12.07;7.00;;;16.60;99.90;;;;;;4979807;28;20687;-52
2022/09/11 06:39:15;;;;;;;12.03;6.57;;;16.60;99.90;;;;;;4978905;28;20398;-52
2022/09/11 06:41:42;;;;;;;11.40;6.82;;;16.60;99.90;;;;;;4975717;28;20442;-52
2022/09/11 06:44:09;;;;;;;13.88;6.90;;;16.60;99.90;;;;;;4983818;28;20785;-52
2022/09/11 06:46:35;;;;;;;13.38;6.60;;;16.70;99.90;;;;;;4983913;28;20415;-52
2022/09/11 06:49:02;;;;;;;13.20;6.00;;;16.80;99.90;;;;;;4983740;28;20614;-52
2022/09/11 06:51:28;;;;;;;12.10;6.43;;;16.80;99.90;;;;;;4982971;28;20485;-52
2022/09/11 06:54:01;;;;;;;12.88;6.93;;;16.80;99.90;;;;;;4980206;28;20404;-52
2022/09/11 06:56:29;;;;;;;11.43;6.20;;;16.90;99.90;;;;;;4978712;28;20390;-52
2022/09/11 06:58:55;;;;;;;12.90;6.40;;;16.80;99.90;;;;;;4984743;28;20423;-52
2022/09/11 07:01:21;;;;;;;10.73;6.38;;;16.90;99.90;;;;;;4985621;28;20856;-52
2022/09/11 07:03:52;;;;;;;12.02;6.75;;;16.90;99.90;;;;;;4981990;28;20477;-52
2022/09/11 07:06:25;;;;;;;11.60;6.50;;;16.80;99.90;;;;;;4978126;28;20419;-52
2022/09/11 07:08:55;;;;;;;11.50;6.10;;;16.80;99.90;;;;;;4978298;28;20445;-52
2022/09/11 07:11:21;;;;;;;14.95;6.60;;;16.80;99.90;;;;;;4976459;28;20463;-52
2022/09/11 07:13:47;;;;;;;12.10;6.20;;;16.90;99.90;;;;;;4980522;28;20402;-52
2022/09/11 07:16:13;;;;;;;11.93;5.93;;;16.90;99.90;;;;;;4983052;28;20394;-52
2022/09/11 07:18:43;;;;;;;14.87;6.60;;;17.00;99.90;;;;;;4986073;28;20392;-52
2022/09/11 07:21:21;;;;;;;14.13;6.30;;;17.20;99.90;;;;;;4980703;28;20398;-52
2022/09/11 07:23:50;;;;;;;12.68;6.22;;;17.40;99.90;;;;;;4979219;28;20540;-52
2022/09/11 07:26:16;;;;;;;11.77;6.47;;;17.50;99.90;;;;;;4972512;28;20444;-52
2022/09/11 07:28:42;;;;;;;11.33;6.50;;;17.50;99.90;;;;;;4985080;28;20760;-52
2022/09/11 07:31:13;;;;;;;14.23;6.05;;;17.60;99.90;;;;;;4981564;28;20410;-52
2022/09/11 07:33:47;;;;;;;13.35;6.40;;;17.60;99.90;;;;;;4975461;28;20427;-52
2022/09/11 07:36:15;;;;;;;13.10;6.80;;;17.70;95.70;;;;;;4981798;28;20503;-52
2022/09/11 07:38:45;;;;;;;11.43;6.90;;;17.70;99.90;;;;;;4980513;28;20415;-52
2022/09/11 07:41:12;;;;;;;11.15;6.32;;;17.80;99.90;;;;;;4985134;28;20438;-52
2022/09/11 07:43:40;;;;;;;14.13;5.93;;;17.80;71.80;;;;;;4972279;28;20410;-52
2022/09/11 07:46:08;;;;;;;13.25;6.00;;;17.80;62.10;;;;;;4981298;28;20418;-52
2022/09/11 07:48:34;;;;;;;14.57;6.20;;;18.00;47.70;;;;;;4978621;28;20386;-52
2022/09/11 07:51:05;;;;;;;10.45;5.80;;;17.80;48.90;;;;;;4982704;28;20415;-52
2022/09/11 07:53:33;;;;;;;11.18;6.28;;;17.90;65.90;;;;;;4972272;28;20451;-52
2022/09/11 07:56:04;;;;;;;10.03;5.40;;;18.10;44.60;;;;;;4975788;28;20486;-52
2022/09/11 07:58:34;;;;;;;11.30;5.80;;;18.30;22.80;;;;;;4975040;28;20418;-52
2022/09/11 08:01:04;;;;;;;11.50;5.87;;;18.30;1.00;;;;;;4975858;28;20414;-52
2022/09/11 08:03:30;;;;;;;12.98;6.07;;;18.40;1.00;;;;;;4970760;28;20499;-52
2022/09/11 08:06:00;;;;;;;11.15;5.72;;;18.40;1.00;;;;;;4983050;28;20505;-52
2022/09/11 08:08:28;;;;;;;13.02;6.45;;;18.30;1.00;;;;;;4979580;28;20440;-52
2022/09/11 08:10:55;;;;;;;12.13;5.70;;;18.40;1.00;;;;;;4971833;28;20404;-52
2022/09/11 08:13:21;;;;;;;11.43;5.93;;;18.40;1.00;;;;;;4979248;28;20897;-52
2022/09/11 08:15:48;;;;;;;11.80;6.10;;;18.60;1.00;;;;;;4972108;28;20407;-52
2022/09/11 08:18:13;;;;;;;13.10;6.00;;;18.70;1.00;;;;;;4972877;28;20412;-52
2022/09/11 08:20:40;;;;;;;12.15;6.28;;;19.00;1.00;;;;;;4970426;28;20940;-52
2022/09/11 08:23:06;;;;;;;10.40;5.60;;;19.00;1.00;;;;;;4970658;28;20385;-52
2022/09/11 08:25:37;;;;;;;12.18;6.50;;;19.20;1.00;;;;;;4977146;28;20423;-52
2022/09/11 08:28:04;;;;;;;14.77;6.15;;;19.60;99.90;;;;;;4981766;28;20391;-52
2022/09/11 08:30:31;;;;;;;11.30;6.45;;;19.70;1.00;;;;;;4981219;28;20738;-52
2022/09/11 08:32:57;;;;;;;12.55;6.30;;;19.90;1.00;;;;;;4980210;28;20423;-52
2022/09/11 08:35:23;;;;;;;10.60;5.90;;;19.90;1.00;;;;;;4968260;28;20825;-53
2022/09/11 08:37:50;;;;;;;11.07;6.32;;;19.90;1.00;;;;;;4972459;28;20394;-53
2022/09/11 08:40:16;;;;;;;13.50;6.60;;;19.90;99.90;;;;;;4983196;28;20410;-52
2022/09/11 08:42:44;;;;;;;12.45;7.07;;;19.50;99.90;;;;;;5005501;28;20385;-53
2022/09/11 08:45:15;;;;;;;13.70;7.25;;;19.30;99.90;;;;;;5000943;28;20491;-52
2022/09/11 08:47:50;;;;;;;12.38;7.57;;;19.20;1.00;;;;;;4978810;28;20528;-52
2022/09/11 08:50:30;;;;;;;14.03;7.30;;;19.20;99.90;;;;;;4979993;28;20466;-52
2022/09/11 08:52:56;;;;;;;12.73;6.35;;;19.50;1.00;;;;;;4971433;28;20447;-52
2022/09/11 08:56:07;;;;;;;11.60;6.40;;;19.80;1.00;;;;;;4971626;28;20493;-52
2022/09/11 08:58:33;;;;;;;13.63;6.90;;;20.60;1.00;;;;;;4970628;28;20476;-53
2022/09/11 09:01:37;;;;;;;11.50;5.90;;;21.20;99.20;;;;;;4971619;28;20451;-53
2022/09/11 09:04:22;;;;;;;11.55;5.70;;;21.80;1.00;;;;;;4959992;28;20491;-53
2022/09/11 09:07:02;;;;;;;11.13;6.07;;;22.30;99.90;;;;;;4970299;28;20565;-53
2022/09/11 09:09:58;;;;;;;9.88;5.75;;;21.70;1.00;;;;;;4973211;28;20400;-52
2022/09/11 09:12:46;;;;;;;11.37;5.63;;;22.00;99.90;;;;;;4971076;28;20421;-53
2022/09/11 09:15:23;;;;;;;11.40;5.05;;;22.20;99.90;;;;;;4991734;28;20394;-53
2022/09/11 09:18:00;;;;;;;9.40;5.10;;;22.30;99.90;;;;;;5009467;28;20407;-52
2022/09/11 09:20:32;;;;;;;12.13;5.60;;;22.20;99.90;;;;;;5010045;28;20552;-52
2022/09/11 09:23:12;;;;;;;11.10;5.85;;;21.30;99.90;;;;;;4992540;28;20394;-52
2022/09/11 09:25:41;;;;;;;10.93;5.70;;;20.30;99.90;;;;;;4988574;28;20415;-52
2022/09/11 09:28:12;;;;;;;12.40;6.60;;;20.10;99.90;;;;;;4975311;28;20412;-52
2022/09/11 09:30:56;;;;;;;11.80;6.47;;;20.10;99.90;;;;;;4980691;28;20495;-52
2022/09/11 09:33:49;;;;;;;11.85;6.47;;;20.00;5.70;;;;;;4982134;28;20424;-52
2022/09/11 09:36:29;;;;;;;12.43;6.68;;;19.70;65.70;;;;;;4951445;28;20492;-53
2022/09/11 09:38:56;;;;;;;12.82;6.90;;;19.70;99.90;;;;;;4979414;28;20406;-53
2022/09/11 09:41:44;;;;;;;13.70;6.47;;;19.80;1.00;;;;;;4981504;28;20475;-53
2022/09/11 09:44:25;;;;;;;11.00;6.10;;;19.90;1.00;;;;;;4973304;28;20514;-53
2022/09/11 09:46:52;;;;;;;11.37;6.10;;;20.10;24.80;;;;;;4970072;28;20412;-53
2022/09/11 09:49:29;;;;;;;13.02;6.10;;;20.00;99.90;;;;;;4972642;28;20408;-52
2022/09/11 09:52:01;;;;;;;12.43;6.30;;;20.20;99.90;;;;;;4970349;28;20539;-52
2022/09/11 09:54:29;;;;;;;11.57;6.28;;;20.10;1.00;;;;;;4970869;28;20396;-52
2022/09/11 09:57:09;;;;;;;10.65;6.40;;;20.20;99.90;;;;;;4973777;28;20908;-52
2022/09/11 09:59:46;;;;;;;13.90;7.10;;;20.30;99.90;;;;;;4973404;28;20391;-52
2022/09/11 10:02:12;;;;;;;12.65;7.18;;;20.60;99.90;;;;;;4964786;28;20414;-52
2022/09/11 10:04:37;;;;;;;13.73;7.22;;;20.60;99.90;;;;;;4974619;28;20739;-53
2022/09/11 10:07:13;;;;;;;11.32;6.50;;;20.30;1.00;;;;;;4975227;28;20427;-53
2022/09/11 10:09:47;;;;;;;12.60;6.18;;;20.30;97.70;;;;;;4977543;28;20447;-53
2022/09/11 10:12:25;;;;;;;14.93;7.05;;;20.30;99.90;;;;;;4986318;28;20390;-53
2022/09/11 10:15:00;;;;;;;11.38;6.93;;;20.30;1.00;;;;;;4981996;28;21093;-53
2022/09/11 10:17:29;;;;;;;10.98;6.28;;;20.10;1.00;;;;;;4980565;28;20951;-53
2022/09/11 10:20:24;;;;;;;10.95;6.30;;;20.00;1.00;;;;;;4985272;28;20398;-53
2022/09/11 10:22:50;;;;;;;11.93;6.60;;;20.30;99.90;;;;;;4977866;28;20660;-54
2022/09/11 10:25:25;;;;;;;10.27;5.80;;;20.50;98.50;;;;;;4979005;28;20925;-53
2022/09/11 10:28:14;;;;;;;12.55;6.90;;;20.70;99.90;;;;;;4978620;28;20596;-53
2022/09/11 10:31:01;;;;;;;11.30;6.50;;;20.60;99.90;;;;;;4984706;28;20449;-51
2022/09/11 10:33:36;;;;;;;12.20;6.00;;;21.10;99.90;;;;;;4980169;28;20408;-51
2022/09/11 10:36:05;;;;;;;10.98;6.10;;;21.40;1.00;;;;;;4981301;28;20401;-51
2022/09/11 10:38:33;;;;;;;10.73;6.10;;;21.80;99.90;;;;;;4982409;28;20390;-51
2022/09/11 10:41:13;;;;;;;11.75;6.65;;;22.50;99.90;;;;;;4973062;28;20392;-51
2022/09/11 10:43:46;;;;;;;12.75;6.20;;;22.90;99.90;;;;;;4981807;28;20413;-53
2022/09/11 10:46:18;;;;;;;9.73;5.43;;;23.30;1.00;;;;;;4987834;28;20896;-55
2022/09/11 10:48:54;;;;;;;11.90;6.10;;;23.70;1.00;;;;;;4976170;28;20403;-54
2022/09/11 10:51:21;;;;;;;11.52;5.90;;;23.30;1.00;;;;;;4973257;28;20395;-54
2022/09/11 10:54:09;;;;;;;10.50;5.82;;;23.60;1.00;;;;;;4972123;28;21071;-54
2022/09/11 10:56:54;;;;;;;11.27;6.00;;;23.10;1.00;;;;;;4976598;28;20399;-55
2022/09/11 10:59:27;;;;;;;11.63;6.38;;;22.90;1.00;;;;;;4980231;28;20392;-54
2022/09/11 11:01:53;;;;;;;11.00;6.50;;;22.90;1.00;;;;;;4973392;28;20431;-54
2022/09/11 11:04:20;;;;;;;11.73;5.80;;;23.00;1.00;;;;;;4990915;28;20429;-54
2022/09/11 11:07:35;;;;;;;11.63;6.70;;;22.80;1.00;;;;;;4990553;28;20403;-54
2022/09/11 11:10:33;;;;;;;12.90;6.05;;;22.60;1.00;;;;;;4991404;28;20402;-54
2022/09/11 11:13:38;;;;;;;10.18;5.85;;;22.60;1.00;;;;;;4991674;28;20473;-54
2022/09/11 11:16:26;;;;;;;11.00;5.70;;;22.60;1.00;;;;;;4986780;28;20756;-54
2022/09/11 11:19:19;;;;;;;10.95;5.72;;;23.70;1.00;;;;;;4991365;28;20844;-54
2022/09/11 11:22:11;;;;;;;10.13;5.37;;;24.40;1.00;;;;;;4980561;28;20404;-54
2022/09/11 11:24:51;;;;;;;11.68;5.75;;;24.30;1.00;;;;;;4982469;28;20427;-55
2022/09/11 11:27:59;;;;;;;10.50;5.60;;;24.10;1.00;;;;;;4978810;28;20910;-54
2022/09/11 11:30:55;;;;;;;11.10;6.00;;;24.50;1.00;;;;;;4982892;28;20517;-54
2022/09/11 11:34:17;;;;;;;11.70;5.73;;;25.00;1.00;;;;;;4983675;28;20428;-54
2022/09/11 11:37:06;;;;;;;11.43;5.20;;;25.10;1.00;;;;;;4912061;29;20476;-53
2022/09/11 11:39:36;;;;;;;10.57;5.90;;;25.20;1.00;;;;;;4909772;29;20477;-53
2022/09/11 11:42:24;;;;;;;9.50;5.20;;;24.60;1.00;;;;;;4963692;28;20488;-52
2022/09/11 11:44:57;;;;;;;9.53;5.33;;;24.80;1.00;;;;;;4983968;28;20401;-53
2022/09/11 11:47:33;;;;;;;8.70;4.20;;;24.80;1.00;;;;;;4983498;28;20904;-53
2022/09/11 11:50:32;;;;;;;11.30;5.40;;;24.50;1.00;;;;;;4979733;28;20414;-53
2022/09/11 11:53:22;;;;;;;12.57;5.32;;;24.20;1.00;;;;;;4981478;28;20503;-53
2022/09/11 11:55:53;;;;;;;9.50;5.40;;;24.20;1.00;;;;;;4982492;28;20430;-52
2022/09/11 11:58:39;;;;;;;10.90;5.25;;;23.70;1.00;;;;;;4979734;28;20418;-52
2022/09/11 12:01:11;;;;;;;10.45;5.03;;;23.80;1.00;;;;;;4982738;28;20941;-53
2022/09/11 12:03:58;;;;;;;11.77;5.60;;;24.00;1.00;;;;;;4978709;28;20433;-52
2022/09/11 12:06:25;;;;;;;10.35;5.25;;;24.30;1.00;;;;;;4982429;28;20431;-53
2022/09/11 12:08:51;;;;;;;11.02;5.70;;;24.30;1.00;;;;;;4980593;28;20518;-53
2022/09/11 12:11:30;;;;;;;10.40;5.43;;;24.40;1.00;;;;;;4981767;28;20450;-54
2022/09/11 12:13:57;;;;;;;11.00;5.00;;;24.60;1.00;;;;;;4982934;28;20410;-53
2022/09/11 12:16:31;;;;;;;10.88;5.50;;;24.30;1.00;;;;;;4979983;28;20391;-53
2022/09/11 12:19:11;;;;;;;10.57;4.88;;;24.40;1.00;;;;;;4979737;28;20744;-53
2022/09/11 12:21:58;;;;;;;11.23;5.20;;;24.60;99.90;;;;;;4981113;28;20394;-53
2022/09/11 12:24:51;;;;;;;10.93;5.45;;;24.30;99.90;;;;;;4975508;28;20408;-53
2022/09/11 12:27:33;;;;;;;10.10;5.40;;;24.50;99.90;;;;;;4975054;28;20832;-54
2022/09/11 12:30:14;;;;;;;9.10;5.20;;;24.50;99.90;;;;;;4984438;28;20465;-53
2022/09/11 12:32:44;;;;;;;10.40;4.90;;;24.30;99.90;;;;;;4981691;28;20512;-54
2022/09/11 12:35:22;;;;;;;10.35;5.00;;;24.10;1.00;;;;;;4963658;28;20856;-53
2022/09/11 12:37:55;;;;;;;10.02;5.20;;;24.20;1.00;;;;;;4981509;28;20383;-53
2022/09/11 12:40:37;;;;;;;10.27;5.70;;;23.70;1.00;;;;;;4987503;28;20418;-53
2022/09/11 12:43:36;;;;;;;11.35;5.30;;;23.10;1.00;;;;;;4989794;28;20438;-53
2022/09/11 12:46:04;;;;;;;11.80;6.10;;;23.00;1.00;;;;;;4989853;28;20476;-53
2022/09/11 12:48:43;;;;;;;9.27;5.20;;;23.00;1.00;;;;;;4973982;28;20396;-53
2022/09/11 12:51:37;;;;;;;9.70;5.60;;;23.10;1.00;;;;;;4971553;28;20394;-53
2022/09/11 12:54:11;;;;;;;11.10;5.60;;;23.30;1.00;;;;;;4971671;28;20404;-54
2022/09/11 12:57:07;;;;;;;9.50;5.40;;;23.30;1.00;;;;;;4970661;28;20448;-53
2022/09/11 12:59:50;;;;;;;11.40;5.53;;;23.10;1.00;;;;;;4955124;28;20977;-53
2022/09/11 13:02:38;;;;;;;11.10;6.00;;;23.10;1.00;;;;;;4971614;28;20427;-54
2022/09/11 13:05:14;;;;;;;10.13;5.95;;;22.90;1.00;;;;;;4971541;28;20396;-53
2022/09/11 13:07:42;;;;;;;13.27;5.97;;;22.90;1.00;;;;;;4970611;28;20838;-52
2022/09/11 13:10:23;;;;;;;11.13;5.72;;;23.00;1.00;;;;;;4971121;28;20872;-53
2022/09/11 13:12:51;;;;;;;11.25;5.90;;;22.80;1.00;;;;;;4970474;28;20396;-53